sensor_id;sensor_type;location;lat;lon;timestamp;P1;durP1;ratioP1;P2;durP2;ratioP2
31910;SDS011;18457;52.432;16.914;2023-01-23T00:00:13;34.00;;;15.60;;
31910;SDS011;18457;52.432;16.914;2023-01-23T00:03:04;36.30;;;16.10;;
31910;SDS011;18457;52.432;16.914;2023-01-23T00:05:32;36.60;;;16.90;;
31910;SDS011;18457;52.432;16.914;2023-01-23T00:08:01;41.00;;;18.20;;
31910;SDS011;18457;52.432;16.914;2023-01-23T00:10:29;44.50;;;20.60;;
31910;SDS011;18457;52.432;16.914;2023-01-23T00:12:58;52.00;;;24.00;;
31910;SDS011;18457;52.432;16.914;2023-01-23T00:15:26;58.50;;;27.70;;
31910;SDS011;18457;52.432;16.914;2023-01-23T00:17:55;56.40;;;27.00;;
31910;SDS011;18457;52.432;16.914;2023-01-23T00:20:24;62.60;;;30.30;;
31910;SDS011;18457;52.432;16.914;2023-01-23T00:22:52;57.30;;;28.30;;
31910;SDS011;18457;52.432;16.914;2023-01-23T00:25:21;46.60;;;22.00;;
31910;SDS011;18457;52.432;16.914;2023-01-23T00:27:49;51.40;;;17.40;;
31910;SDS011;18457;52.432;16.914;2023-01-23T00:30:18;39.90;;;17.10;;
31910;SDS011;18457;52.432;16.914;2023-01-23T00:32:47;35.30;;;17.00;;
31910;SDS011;18457;52.432;16.914;2023-01-23T00:35:15;37.30;;;16.20;;
31910;SDS011;18457;52.432;16.914;2023-01-23T00:37:44;37.60;;;16.90;;
31910;SDS011;18457;52.432;16.914;2023-01-23T00:40:13;44.90;;;16.70;;
31910;SDS011;18457;52.432;16.914;2023-01-23T00:42:41;37.60;;;16.90;;
31910;SDS011;18457;52.432;16.914;2023-01-23T00:45:10;40.10;;;16.70;;
31910;SDS011;18457;52.432;16.914;2023-01-23T00:47:40;40.10;;;15.90;;
31910;SDS011;18457;52.432;16.914;2023-01-23T00:50:10;39.20;;;16.80;;
31910;SDS011;18457;52.432;16.914;2023-01-23T00:52:38;38.60;;;18.00;;
31910;SDS011;18457;52.432;16.914;2023-01-23T00:55:08;37.40;;;17.30;;
31910;SDS011;18457;52.432;16.914;2023-01-23T00:57:37;40.60;;;17.20;;
31910;SDS011;18457;52.432;16.914;2023-01-23T01:00:08;35.50;;;16.40;;
31910;SDS011;18457;52.432;16.914;2023-01-23T01:02:38;39.10;;;18.40;;
31910;SDS011;18457;52.432;16.914;2023-01-23T01:05:07;32.60;;;16.20;;
31910;SDS011;18457;52.432;16.914;2023-01-23T01:07:36;35.00;;;16.50;;
31910;SDS011;18457;52.432;16.914;2023-01-23T01:10:05;43.30;;;17.30;;
31910;SDS011;18457;52.432;16.914;2023-01-23T01:12:36;28.00;;;13.20;;
31910;SDS011;18457;52.432;16.914;2023-01-23T01:15:07;40.60;;;17.80;;
31910;SDS011;18457;52.432;16.914;2023-01-23T01:17:37;41.10;;;17.50;;
31910;SDS011;18457;52.432;16.914;2023-01-23T01:20:08;39.50;;;17.80;;
31910;SDS011;18457;52.432;16.914;2023-01-23T01:22:38;42.50;;;19.50;;
31910;SDS011;18457;52.432;16.914;2023-01-23T01:25:06;37.20;;;16.80;;
31910;SDS011;18457;52.432;16.914;2023-01-23T01:27:36;41.00;;;18.10;;
31910;SDS011;18457;52.432;16.914;2023-01-23T01:30:05;42.90;;;18.10;;
31910;SDS011;18457;52.432;16.914;2023-01-23T01:32:36;43.10;;;18.60;;
31910;SDS011;18457;52.432;16.914;2023-01-23T01:35:06;41.90;;;18.50;;
31910;SDS011;18457;52.432;16.914;2023-01-23T01:37:37;45.40;;;18.70;;
31910;SDS011;18457;52.432;16.914;2023-01-23T01:40:08;41.70;;;18.70;;
31910;SDS011;18457;52.432;16.914;2023-01-23T01:42:42;46.10;;;18.40;;
31910;SDS011;18457;52.432;16.914;2023-01-23T01:48:18;41.70;;;18.90;;
31910;SDS011;18457;52.432;16.914;2023-01-23T01:50:50;42.30;;;18.20;;
31910;SDS011;18457;52.432;16.914;2023-01-23T01:53:19;40.90;;;18.40;;
31910;SDS011;18457;52.432;16.914;2023-01-23T01:55:52;37.30;;;17.30;;
31910;SDS011;18457;52.432;16.914;2023-01-23T01:58:21;43.10;;;19.70;;
31910;SDS011;18457;52.432;16.914;2023-01-23T02:00:50;41.90;;;18.20;;
31910;SDS011;18457;52.432;16.914;2023-01-23T02:03:19;42.50;;;18.90;;
31910;SDS011;18457;52.432;16.914;2023-01-23T02:05:48;42.40;;;19.70;;
31910;SDS011;18457;52.432;16.914;2023-01-23T02:08:19;42.30;;;18.90;;
31910;SDS011;18457;52.432;16.914;2023-01-23T02:10:53;44.50;;;19.20;;
31910;SDS011;18457;52.432;16.914;2023-01-23T02:13:23;43.80;;;19.70;;
31910;SDS011;18457;52.432;16.914;2023-01-23T02:15:59;43.30;;;19.70;;
31910;SDS011;18457;52.432;16.914;2023-01-23T02:18:29;45.80;;;20.80;;
31910;SDS011;18457;52.432;16.914;2023-01-23T02:21:03;49.00;;;21.10;;
31910;SDS011;18457;52.432;16.914;2023-01-23T02:23:36;52.20;;;22.20;;
31910;SDS011;18457;52.432;16.914;2023-01-23T02:26:16;58.20;;;24.10;;
31910;SDS011;18457;52.432;16.914;2023-01-23T02:28:49;83.70;;;28.60;;
31910;SDS011;18457;52.432;16.914;2023-01-23T02:31:21;68.10;;;26.30;;
31910;SDS011;18457;52.432;16.914;2023-01-23T02:33:50;98.50;;;35.50;;
31910;SDS011;18457;52.432;16.914;2023-01-23T02:36:22;64.10;;;24.80;;
31910;SDS011;18457;52.432;16.914;2023-01-23T02:38:54;77.30;;;28.40;;
31910;SDS011;18457;52.432;16.914;2023-01-23T02:41:28;73.60;;;25.60;;
31910;SDS011;18457;52.432;16.914;2023-01-23T02:43:58;84.20;;;30.00;;
31910;SDS011;18457;52.432;16.914;2023-01-23T02:48:58;66.20;;;25.40;;
31910;SDS011;18457;52.432;16.914;2023-01-23T02:51:27;67.30;;;25.70;;
31910;SDS011;18457;52.432;16.914;2023-01-23T02:53:56;61.40;;;24.90;;
31910;SDS011;18457;52.432;16.914;2023-01-23T02:56:24;66.60;;;26.00;;
31910;SDS011;18457;52.432;16.914;2023-01-23T02:58:54;48.40;;;21.20;;
31910;SDS011;18457;52.432;16.914;2023-01-23T03:01:41;42.50;;;18.80;;
31910;SDS011;18457;52.432;16.914;2023-01-23T03:04:12;42.50;;;18.40;;
31910;SDS011;18457;52.432;16.914;2023-01-23T03:06:41;39.50;;;18.10;;
31910;SDS011;18457;52.432;16.914;2023-01-23T03:09:10;40.00;;;18.70;;
31910;SDS011;18457;52.432;16.914;2023-01-23T03:11:41;42.20;;;18.20;;
31910;SDS011;18457;52.432;16.914;2023-01-23T03:14:13;36.10;;;15.60;;
31910;SDS011;18457;52.432;16.914;2023-01-23T03:19:16;41.40;;;17.20;;
31910;SDS011;18457;52.432;16.914;2023-01-23T03:21:45;44.30;;;18.70;;
31910;SDS011;18457;52.432;16.914;2023-01-23T03:24:14;37.70;;;17.90;;
31910;SDS011;18457;52.432;16.914;2023-01-23T03:26:43;40.50;;;17.40;;
31910;SDS011;18457;52.432;16.914;2023-01-23T03:29:14;44.10;;;17.90;;
31910;SDS011;18457;52.432;16.914;2023-01-23T03:32:02;38.10;;;17.60;;
31910;SDS011;18457;52.432;16.914;2023-01-23T03:34:31;32.40;;;14.80;;
31910;SDS011;18457;52.432;16.914;2023-01-23T03:37:00;39.00;;;18.10;;
31910;SDS011;18457;52.432;16.914;2023-01-23T03:39:29;42.20;;;18.20;;
31910;SDS011;18457;52.432;16.914;2023-01-23T03:42:17;35.60;;;16.80;;
31910;SDS011;18457;52.432;16.914;2023-01-23T03:44:46;47.30;;;20.10;;
31910;SDS011;18457;52.432;16.914;2023-01-23T03:47:15;40.00;;;18.30;;
31910;SDS011;18457;52.432;16.914;2023-01-23T03:49:44;36.10;;;16.60;;
31910;SDS011;18457;52.432;16.914;2023-01-23T03:52:12;41.80;;;20.10;;
31910;SDS011;18457;52.432;16.914;2023-01-23T03:54:42;43.70;;;19.80;;
31910;SDS011;18457;52.432;16.914;2023-01-23T03:57:10;40.90;;;17.70;;
31910;SDS011;18457;52.432;16.914;2023-01-23T03:59:58;43.70;;;19.40;;
31910;SDS011;18457;52.432;16.914;2023-01-23T04:02:40;43.80;;;18.00;;
31910;SDS011;18457;52.432;16.914;2023-01-23T04:05:11;39.30;;;18.00;;
31910;SDS011;18457;52.432;16.914;2023-01-23T04:07:39;41.90;;;17.40;;
31910;SDS011;18457;52.432;16.914;2023-01-23T04:10:09;40.20;;;20.00;;
31910;SDS011;18457;52.432;16.914;2023-01-23T04:12:41;48.00;;;20.70;;
31910;SDS011;18457;52.432;16.914;2023-01-23T04:15:11;39.40;;;17.20;;
31910;SDS011;18457;52.432;16.914;2023-01-23T04:17:39;40.40;;;17.70;;
31910;SDS011;18457;52.432;16.914;2023-01-23T04:20:09;37.30;;;18.60;;
31910;SDS011;18457;52.432;16.914;2023-01-23T04:22:40;32.30;;;15.40;;
31910;SDS011;18457;52.432;16.914;2023-01-23T04:25:09;42.20;;;17.60;;
31910;SDS011;18457;52.432;16.914;2023-01-23T04:27:38;37.60;;;19.20;;
31910;SDS011;18457;52.432;16.914;2023-01-23T04:30:08;44.60;;;19.80;;
31910;SDS011;18457;52.432;16.914;2023-01-23T04:32:38;42.30;;;20.20;;
31910;SDS011;18457;52.432;16.914;2023-01-23T04:35:07;39.80;;;19.60;;
31910;SDS011;18457;52.432;16.914;2023-01-23T04:37:37;41.60;;;17.40;;
31910;SDS011;18457;52.432;16.914;2023-01-23T04:40:08;40.90;;;17.80;;
31910;SDS011;18457;52.432;16.914;2023-01-23T04:45:29;40.90;;;17.80;;
31910;SDS011;18457;52.432;16.914;2023-01-23T04:48:18;38.10;;;18.00;;
31910;SDS011;18457;52.432;16.914;2023-01-23T04:50:48;38.80;;;16.60;;
31910;SDS011;18457;52.432;16.914;2023-01-23T04:53:17;42.40;;;18.10;;
31910;SDS011;18457;52.432;16.914;2023-01-23T04:55:48;36.90;;;17.10;;
31910;SDS011;18457;52.432;16.914;2023-01-23T04:58:17;39.60;;;18.50;;
31910;SDS011;18457;52.432;16.914;2023-01-23T05:00:46;39.10;;;18.10;;
31910;SDS011;18457;52.432;16.914;2023-01-23T05:03:15;36.20;;;19.20;;
31910;SDS011;18457;52.432;16.914;2023-01-23T05:05:46;36.40;;;17.50;;
31910;SDS011;18457;52.432;16.914;2023-01-23T05:08:15;40.40;;;17.60;;
31910;SDS011;18457;52.432;16.914;2023-01-23T05:10:48;38.70;;;15.90;;
31910;SDS011;18457;52.432;16.914;2023-01-23T05:13:17;38.60;;;17.40;;
31910;SDS011;18457;52.432;16.914;2023-01-23T05:15:46;39.40;;;17.20;;
31910;SDS011;18457;52.432;16.914;2023-01-23T05:18:16;39.40;;;17.20;;
31910;SDS011;18457;52.432;16.914;2023-01-23T05:20:45;35.30;;;17.30;;
31910;SDS011;18457;52.432;16.914;2023-01-23T05:23:14;41.50;;;18.80;;
31910;SDS011;18457;52.432;16.914;2023-01-23T05:25:47;37.40;;;18.00;;
31910;SDS011;18457;52.432;16.914;2023-01-23T05:28:16;41.80;;;18.70;;
31910;SDS011;18457;52.432;16.914;2023-01-23T05:30:47;38.40;;;18.40;;
31910;SDS011;18457;52.432;16.914;2023-01-23T05:33:23;38.80;;;19.10;;
31910;SDS011;18457;52.432;16.914;2023-01-23T05:35:51;41.00;;;18.50;;
31910;SDS011;18457;52.432;16.914;2023-01-23T05:38:20;39.20;;;19.10;;
31910;SDS011;18457;52.432;16.914;2023-01-23T05:40:48;42.80;;;19.30;;
31910;SDS011;18457;52.432;16.914;2023-01-23T05:43:34;35.90;;;18.00;;
31910;SDS011;18457;52.432;16.914;2023-01-23T05:46:26;46.30;;;17.80;;
31910;SDS011;18457;52.432;16.914;2023-01-23T05:48:56;43.10;;;19.00;;
31910;SDS011;18457;52.432;16.914;2023-01-23T05:51:25;43.50;;;19.00;;
31910;SDS011;18457;52.432;16.914;2023-01-23T05:53:59;41.90;;;18.70;;
31910;SDS011;18457;52.432;16.914;2023-01-23T05:56:28;41.40;;;17.20;;
31910;SDS011;18457;52.432;16.914;2023-01-23T05:59:15;42.50;;;18.10;;
31910;SDS011;18457;52.432;16.914;2023-01-23T06:02:04;43.40;;;19.50;;
31910;SDS011;18457;52.432;16.914;2023-01-23T06:04:59;44.90;;;20.20;;
31910;SDS011;18457;52.432;16.914;2023-01-23T06:07:36;40.70;;;17.30;;
31910;SDS011;18457;52.432;16.914;2023-01-23T06:10:07;41.60;;;17.40;;
31910;SDS011;18457;52.432;16.914;2023-01-23T06:12:37;42.50;;;20.60;;
31910;SDS011;18457;52.432;16.914;2023-01-23T06:15:06;40.30;;;18.00;;
31910;SDS011;18457;52.432;16.914;2023-01-23T06:17:35;38.10;;;17.80;;
31910;SDS011;18457;52.432;16.914;2023-01-23T06:20:05;49.10;;;19.40;;
31910;SDS011;18457;52.432;16.914;2023-01-23T06:22:38;45.00;;;20.10;;
31910;SDS011;18457;52.432;16.914;2023-01-23T06:25:10;38.90;;;17.80;;
31910;SDS011;18457;52.432;16.914;2023-01-23T06:27:38;44.40;;;19.10;;
31910;SDS011;18457;52.432;16.914;2023-01-23T06:30:09;44.50;;;18.90;;
31910;SDS011;18457;52.432;16.914;2023-01-23T06:32:41;49.50;;;19.50;;
31910;SDS011;18457;52.432;16.914;2023-01-23T06:35:10;43.40;;;18.30;;
31910;SDS011;18457;52.432;16.914;2023-01-23T06:37:40;46.10;;;19.60;;
31910;SDS011;18457;52.432;16.914;2023-01-23T06:40:12;46.60;;;20.40;;
31910;SDS011;18457;52.432;16.914;2023-01-23T06:42:47;43.40;;;20.50;;
31910;SDS011;18457;52.432;16.914;2023-01-23T06:45:17;49.50;;;23.10;;
31910;SDS011;18457;52.432;16.914;2023-01-23T06:47:46;44.70;;;21.60;;
31910;SDS011;18457;52.432;16.914;2023-01-23T06:50:15;44.40;;;19.70;;
31910;SDS011;18457;52.432;16.914;2023-01-23T06:52:44;48.70;;;21.30;;
31910;SDS011;18457;52.432;16.914;2023-01-23T06:55:13;45.20;;;21.10;;
31910;SDS011;18457;52.432;16.914;2023-01-23T06:57:43;45.30;;;21.10;;
31910;SDS011;18457;52.432;16.914;2023-01-23T07:00:13;43.10;;;20.30;;
31910;SDS011;18457;52.432;16.914;2023-01-23T07:02:43;52.90;;;23.20;;
31910;SDS011;18457;52.432;16.914;2023-01-23T07:05:13;51.20;;;22.40;;
31910;SDS011;18457;52.432;16.914;2023-01-23T07:07:45;49.70;;;22.70;;
31910;SDS011;18457;52.432;16.914;2023-01-23T07:12:42;42.60;;;19.90;;
31910;SDS011;18457;52.432;16.914;2023-01-23T07:15:11;46.40;;;21.30;;
31910;SDS011;18457;52.432;16.914;2023-01-23T07:17:40;49.40;;;21.70;;
31910;SDS011;18457;52.432;16.914;2023-01-23T07:20:10;48.10;;;20.70;;
31910;SDS011;18457;52.432;16.914;2023-01-23T07:22:42;46.20;;;20.70;;
31910;SDS011;18457;52.432;16.914;2023-01-23T07:25:11;48.90;;;20.80;;
31910;SDS011;18457;52.432;16.914;2023-01-23T07:27:39;44.80;;;20.40;;
31910;SDS011;18457;52.432;16.914;2023-01-23T07:30:10;44.20;;;20.10;;
31910;SDS011;18457;52.432;16.914;2023-01-23T07:32:39;41.80;;;18.90;;
31910;SDS011;18457;52.432;16.914;2023-01-23T07:35:10;43.20;;;19.30;;
31910;SDS011;18457;52.432;16.914;2023-01-23T07:37:38;46.60;;;20.80;;
31910;SDS011;18457;52.432;16.914;2023-01-23T07:40:09;43.40;;;19.20;;
31910;SDS011;18457;52.432;16.914;2023-01-23T07:42:38;47.20;;;19.40;;
31910;SDS011;18457;52.432;16.914;2023-01-23T07:45:11;48.60;;;20.50;;
31910;SDS011;18457;52.432;16.914;2023-01-23T07:47:40;54.90;;;24.20;;
31910;SDS011;18457;52.432;16.914;2023-01-23T07:50:11;48.40;;;21.30;;
31910;SDS011;18457;52.432;16.914;2023-01-23T07:52:40;49.80;;;22.80;;
31910;SDS011;18457;52.432;16.914;2023-01-23T07:55:09;48.30;;;23.30;;
31910;SDS011;18457;52.432;16.914;2023-01-23T07:57:37;53.10;;;22.00;;
31910;SDS011;18457;52.432;16.914;2023-01-23T08:00:07;51.30;;;23.40;;
31910;SDS011;18457;52.432;16.914;2023-01-23T08:02:40;52.80;;;22.80;;
31910;SDS011;18457;52.432;16.914;2023-01-23T08:05:09;48.30;;;22.50;;
31910;SDS011;18457;52.432;16.914;2023-01-23T08:07:37;48.50;;;22.80;;
31910;SDS011;18457;52.432;16.914;2023-01-23T08:10:07;49.20;;;22.70;;
31910;SDS011;18457;52.432;16.914;2023-01-23T08:12:37;41.90;;;20.90;;
31910;SDS011;18457;52.432;16.914;2023-01-23T08:15:07;46.40;;;21.00;;
31910;SDS011;18457;52.432;16.914;2023-01-23T08:17:36;55.50;;;25.40;;
31910;SDS011;18457;52.432;16.914;2023-01-23T08:20:05;50.10;;;23.60;;
31910;SDS011;18457;52.432;16.914;2023-01-23T08:22:36;48.90;;;21.00;;
31910;SDS011;18457;52.432;16.914;2023-01-23T08:25:07;51.60;;;23.30;;
31910;SDS011;18457;52.432;16.914;2023-01-23T08:27:37;50.30;;;21.30;;
31910;SDS011;18457;52.432;16.914;2023-01-23T08:30:06;50.20;;;22.80;;
31910;SDS011;18457;52.432;16.914;2023-01-23T08:32:37;53.80;;;22.40;;
31910;SDS011;18457;52.432;16.914;2023-01-23T08:35:06;53.90;;;23.80;;
31910;SDS011;18457;52.432;16.914;2023-01-23T08:37:36;45.10;;;21.40;;
31910;SDS011;18457;52.432;16.914;2023-01-23T08:40:06;48.90;;;22.80;;
31910;SDS011;18457;52.432;16.914;2023-01-23T08:42:36;47.90;;;21.90;;
31910;SDS011;18457;52.432;16.914;2023-01-23T08:45:06;52.60;;;23.80;;
31910;SDS011;18457;52.432;16.914;2023-01-23T08:47:36;47.10;;;23.10;;
31910;SDS011;18457;52.432;16.914;2023-01-23T08:50:06;52.80;;;22.70;;
31910;SDS011;18457;52.432;16.914;2023-01-23T08:52:37;48.00;;;22.50;;
31910;SDS011;18457;52.432;16.914;2023-01-23T08:55:07;49.70;;;23.50;;
31910;SDS011;18457;52.432;16.914;2023-01-23T08:57:38;55.90;;;23.40;;
31910;SDS011;18457;52.432;16.914;2023-01-23T09:00:10;48.90;;;23.30;;
31910;SDS011;18457;52.432;16.914;2023-01-23T09:02:40;46.20;;;21.50;;
31910;SDS011;18457;52.432;16.914;2023-01-23T09:05:09;54.70;;;22.70;;
31910;SDS011;18457;52.432;16.914;2023-01-23T09:07:37;48.10;;;22.30;;
31910;SDS011;18457;52.432;16.914;2023-01-23T09:10:08;56.80;;;24.40;;
31910;SDS011;18457;52.432;16.914;2023-01-23T09:12:39;53.30;;;23.30;;
31910;SDS011;18457;52.432;16.914;2023-01-23T09:15:09;50.70;;;22.50;;
31910;SDS011;18457;52.432;16.914;2023-01-23T09:17:49;59.00;;;25.00;;
31910;SDS011;18457;52.432;16.914;2023-01-23T09:20:18;48.20;;;21.90;;
31910;SDS011;18457;52.432;16.914;2023-01-23T09:22:47;57.70;;;22.60;;
31910;SDS011;18457;52.432;16.914;2023-01-23T09:25:16;52.20;;;22.80;;
31910;SDS011;18457;52.432;16.914;2023-01-23T09:27:45;55.60;;;24.00;;
31910;SDS011;18457;52.432;16.914;2023-01-23T09:30:14;54.30;;;22.40;;
31910;SDS011;18457;52.432;16.914;2023-01-23T09:32:43;58.00;;;24.20;;
31910;SDS011;18457;52.432;16.914;2023-01-23T09:35:12;53.50;;;23.40;;
31910;SDS011;18457;52.432;16.914;2023-01-23T09:37:41;53.70;;;24.20;;
31910;SDS011;18457;52.432;16.914;2023-01-23T09:40:28;55.50;;;23.00;;
31910;SDS011;18457;52.432;16.914;2023-01-23T09:42:59;51.10;;;22.20;;
31910;SDS011;18457;52.432;16.914;2023-01-23T09:45:37;56.40;;;24.20;;
31910;SDS011;18457;52.432;16.914;2023-01-23T09:48:13;50.60;;;21.80;;
31910;SDS011;18457;52.432;16.914;2023-01-23T09:50:51;50.90;;;23.20;;
31910;SDS011;18457;52.432;16.914;2023-01-23T09:53:24;49.50;;;22.50;;
31910;SDS011;18457;52.432;16.914;2023-01-23T09:55:58;54.10;;;24.10;;
31910;SDS011;18457;52.432;16.914;2023-01-23T09:58:33;51.80;;;22.10;;
31910;SDS011;18457;52.432;16.914;2023-01-23T10:01:08;47.00;;;21.80;;
31910;SDS011;18457;52.432;16.914;2023-01-23T10:03:37;49.90;;;22.70;;
31910;SDS011;18457;52.432;16.914;2023-01-23T10:06:15;50.60;;;21.60;;
31910;SDS011;18457;52.432;16.914;2023-01-23T10:12:00;59.90;;;26.70;;
31910;SDS011;18457;52.432;16.914;2023-01-23T10:17:31;104.00;;;36.80;;
31910;SDS011;18457;52.432;16.914;2023-01-23T10:20:16;62.00;;;25.90;;
31910;SDS011;18457;52.432;16.914;2023-01-23T10:22:59;68.20;;;27.80;;
31910;SDS011;18457;52.432;16.914;2023-01-23T10:25:38;65.30;;;27.00;;
31910;SDS011;18457;52.432;16.914;2023-01-23T10:28:17;54.70;;;24.60;;
31910;SDS011;18457;52.432;16.914;2023-01-23T10:30:57;63.60;;;26.50;;
31910;SDS011;18457;52.432;16.914;2023-01-23T10:33:31;77.80;;;31.30;;
31910;SDS011;18457;52.432;16.914;2023-01-23T10:36:10;58.30;;;25.20;;
31910;SDS011;18457;52.432;16.914;2023-01-23T10:38:53;56.50;;;24.80;;
31910;SDS011;18457;52.432;16.914;2023-01-23T10:41:27;73.10;;;29.70;;
31910;SDS011;18457;52.432;16.914;2023-01-23T10:43:55;76.10;;;29.60;;
31910;SDS011;18457;52.432;16.914;2023-01-23T10:46:28;66.50;;;27.10;;
31910;SDS011;18457;52.432;16.914;2023-01-23T10:49:00;74.30;;;32.20;;
31910;SDS011;18457;52.432;16.914;2023-01-23T10:51:33;70.30;;;27.60;;
31910;SDS011;18457;52.432;16.914;2023-01-23T10:54:14;64.10;;;26.70;;
31910;SDS011;18457;52.432;16.914;2023-01-23T10:56:58;64.00;;;28.50;;
31910;SDS011;18457;52.432;16.914;2023-01-23T10:59:32;69.60;;;28.30;;
31910;SDS011;18457;52.432;16.914;2023-01-23T11:02:16;61.50;;;26.90;;
31910;SDS011;18457;52.432;16.914;2023-01-23T11:04:48;72.20;;;27.40;;
31910;SDS011;18457;52.432;16.914;2023-01-23T11:07:21;67.00;;;26.00;;
31910;SDS011;18457;52.432;16.914;2023-01-23T11:09:52;62.40;;;27.10;;
31910;SDS011;18457;52.432;16.914;2023-01-23T11:12:22;58.80;;;25.30;;
31910;SDS011;18457;52.432;16.914;2023-01-23T11:17:39;73.00;;;30.70;;
31910;SDS011;18457;52.432;16.914;2023-01-23T11:20:11;72.20;;;31.50;;
31910;SDS011;18457;52.432;16.914;2023-01-23T11:22:59;67.10;;;30.80;;
31910;SDS011;18457;52.432;16.914;2023-01-23T11:25:31;60.60;;;28.30;;
31910;SDS011;18457;52.432;16.914;2023-01-23T11:28:18;69.00;;;31.40;;
31910;SDS011;18457;52.432;16.914;2023-01-23T11:30:51;83.00;;;37.80;;
31910;SDS011;18457;52.432;16.914;2023-01-23T11:33:41;79.80;;;32.30;;
31910;SDS011;18457;52.432;16.914;2023-01-23T11:39:08;84.40;;;34.70;;
31910;SDS011;18457;52.432;16.914;2023-01-23T11:41:45;74.10;;;30.70;;
31910;SDS011;18457;52.432;16.914;2023-01-23T11:44:15;73.60;;;32.00;;
31910;SDS011;18457;52.432;16.914;2023-01-23T11:46:55;71.70;;;30.80;;
31910;SDS011;18457;52.432;16.914;2023-01-23T11:49:50;80.30;;;34.20;;
31910;SDS011;18457;52.432;16.914;2023-01-23T11:52:33;69.90;;;30.90;;
31910;SDS011;18457;52.432;16.914;2023-01-23T11:55:13;77.00;;;32.50;;
31910;SDS011;18457;52.432;16.914;2023-01-23T11:57:58;74.50;;;32.40;;
31910;SDS011;18457;52.432;16.914;2023-01-23T12:00:33;64.60;;;28.90;;
31910;SDS011;18457;52.432;16.914;2023-01-23T12:06:21;78.30;;;28.10;;
31910;SDS011;18457;52.432;16.914;2023-01-23T12:09:04;64.00;;;28.50;;
31910;SDS011;18457;52.432;16.914;2023-01-23T12:11:38;74.70;;;30.70;;
31910;SDS011;18457;52.432;16.914;2023-01-23T12:14:16;72.20;;;29.40;;
31910;SDS011;18457;52.432;16.914;2023-01-23T12:16:55;114.60;;;44.60;;
31910;SDS011;18457;52.432;16.914;2023-01-23T12:19:42;80.20;;;32.40;;
31910;SDS011;18457;52.432;16.914;2023-01-23T12:25:03;73.60;;;31.50;;
31910;SDS011;18457;52.432;16.914;2023-01-23T12:27:49;66.50;;;28.10;;
31910;SDS011;18457;52.432;16.914;2023-01-23T12:30:28;68.90;;;28.70;;
31910;SDS011;18457;52.432;16.914;2023-01-23T12:33:19;87.80;;;31.10;;
31910;SDS011;18457;52.432;16.914;2023-01-23T12:36:06;67.70;;;28.30;;
31910;SDS011;18457;52.432;16.914;2023-01-23T12:38:47;74.70;;;30.00;;
31910;SDS011;18457;52.432;16.914;2023-01-23T12:41:28;79.40;;;32.60;;
31910;SDS011;18457;52.432;16.914;2023-01-23T12:44:05;72.00;;;29.50;;
31910;SDS011;18457;52.432;16.914;2023-01-23T12:46:41;62.70;;;29.00;;
31910;SDS011;18457;52.432;16.914;2023-01-23T12:49:23;74.70;;;30.30;;
31910;SDS011;18457;52.432;16.914;2023-01-23T12:51:59;79.10;;;30.90;;
31910;SDS011;18457;52.432;16.914;2023-01-23T12:54:33;71.20;;;30.30;;
31910;SDS011;18457;52.432;16.914;2023-01-23T12:57:08;77.00;;;31.20;;
31910;SDS011;18457;52.432;16.914;2023-01-23T12:59:45;72.10;;;29.80;;
31910;SDS011;18457;52.432;16.914;2023-01-23T13:02:27;74.60;;;29.50;;
31910;SDS011;18457;52.432;16.914;2023-01-23T13:05:08;71.40;;;29.10;;
31910;SDS011;18457;52.432;16.914;2023-01-23T13:07:47;79.40;;;31.50;;
31910;SDS011;18457;52.432;16.914;2023-01-23T13:10:28;69.10;;;30.00;;
31910;SDS011;18457;52.432;16.914;2023-01-23T13:13:25;73.80;;;29.60;;
31910;SDS011;18457;52.432;16.914;2023-01-23T13:16:01;75.00;;;28.80;;
31910;SDS011;18457;52.432;16.914;2023-01-23T13:18:37;76.20;;;29.00;;
31910;SDS011;18457;52.432;16.914;2023-01-23T13:21:24;71.10;;;28.40;;
31910;SDS011;18457;52.432;16.914;2023-01-23T13:27:39;69.50;;;30.20;;
31910;SDS011;18457;52.432;16.914;2023-01-23T13:41:48;85.10;;;31.20;;
31910;SDS011;18457;52.432;16.914;2023-01-23T13:44:19;81.70;;;32.90;;
31910;SDS011;18457;52.432;16.914;2023-01-23T13:47:02;85.90;;;32.60;;
31910;SDS011;18457;52.432;16.914;2023-01-23T13:50:19;92.40;;;34.00;;
31910;SDS011;18457;52.432;16.914;2023-01-23T13:53:14;90.30;;;34.40;;
31910;SDS011;18457;52.432;16.914;2023-01-23T13:56:21;98.50;;;37.80;;
31910;SDS011;18457;52.432;16.914;2023-01-23T13:59:25;91.10;;;35.00;;
31910;SDS011;18457;52.432;16.914;2023-01-23T14:02:17;85.40;;;31.60;;
31910;SDS011;18457;52.432;16.914;2023-01-23T14:05:26;92.90;;;33.70;;
31910;SDS011;18457;52.432;16.914;2023-01-23T14:08:15;83.70;;;32.30;;
31910;SDS011;18457;52.432;16.914;2023-01-23T14:11:01;94.90;;;33.20;;
31910;SDS011;18457;52.432;16.914;2023-01-23T14:14:33;84.80;;;32.90;;
31910;SDS011;18457;52.432;16.914;2023-01-23T14:17:37;86.70;;;33.30;;
31910;SDS011;18457;52.432;16.914;2023-01-23T14:20:27;86.10;;;45.50;;
31910;SDS011;18457;52.432;16.914;2023-01-23T14:23:22;89.20;;;34.60;;
31910;SDS011;18457;52.432;16.914;2023-01-23T14:25:56;89.20;;;33.70;;
31910;SDS011;18457;52.432;16.914;2023-01-23T14:28:25;92.00;;;34.50;;
31910;SDS011;18457;52.432;16.914;2023-01-23T14:30:54;87.90;;;34.80;;
31910;SDS011;18457;52.432;16.914;2023-01-23T14:33:25;97.90;;;36.80;;
31910;SDS011;18457;52.432;16.914;2023-01-23T14:35:54;95.30;;;35.10;;
31910;SDS011;18457;52.432;16.914;2023-01-23T14:38:25;93.00;;;35.40;;
31910;SDS011;18457;52.432;16.914;2023-01-23T14:43:26;98.60;;;35.80;;
31910;SDS011;18457;52.432;16.914;2023-01-23T14:45:59;91.40;;;37.50;;
31910;SDS011;18457;52.432;16.914;2023-01-23T14:48:32;135.80;;;53.30;;
31910;SDS011;18457;52.432;16.914;2023-01-23T14:51:07;119.80;;;46.40;;
31910;SDS011;18457;52.432;16.914;2023-01-23T14:53:49;110.00;;;43.10;;
31910;SDS011;18457;52.432;16.914;2023-01-23T14:56:21;112.60;;;40.20;;
31910;SDS011;18457;52.432;16.914;2023-01-23T14:58:54;91.40;;;34.30;;
31910;SDS011;18457;52.432;16.914;2023-01-23T15:01:25;112.80;;;37.50;;
31910;SDS011;18457;52.432;16.914;2023-01-23T15:03:55;108.20;;;41.30;;
31910;SDS011;18457;52.432;16.914;2023-01-23T15:06:25;110.90;;;40.70;;
31910;SDS011;18457;52.432;16.914;2023-01-23T15:09:05;108.40;;;41.40;;
31910;SDS011;18457;52.432;16.914;2023-01-23T15:11:39;85.20;;;33.80;;
31910;SDS011;18457;52.432;16.914;2023-01-23T15:14:17;119.30;;;44.20;;
31910;SDS011;18457;52.432;16.914;2023-01-23T15:16:57;116.60;;;44.70;;
31910;SDS011;18457;52.432;16.914;2023-01-23T15:19:28;110.40;;;41.10;;
31910;SDS011;18457;52.432;16.914;2023-01-23T15:22:04;99.90;;;38.20;;
31910;SDS011;18457;52.432;16.914;2023-01-23T15:24:35;95.80;;;35.10;;
31910;SDS011;18457;52.432;16.914;2023-01-23T15:27:22;84.50;;;32.70;;
31910;SDS011;18457;52.432;16.914;2023-01-23T15:29:52;89.80;;;34.10;;
31910;SDS011;18457;52.432;16.914;2023-01-23T15:33:23;91.80;;;34.70;;
31910;SDS011;18457;52.432;16.914;2023-01-23T15:36:03;105.80;;;38.40;;